Flight Track Log - Related Links

Times and Time Zones

All times are in EDT time to prevent confusion due to time zone crossing. See the CSJ405 flight status page for this flight to view local times or setup timezone preferences in your user account.

Time Position Orientation Groundspeed Altitude Reporting Facility
EDT Latitude Longitude Course Direction KTS MPH feet Rate Location/Type
Thu 01:53:16 AM 43.1667 -79.9000 95° East 30 35 800  Level Toronto Center
Thu 01:56:25 AM 43.1667 -79.8833 90° East 90 104 1,200 265 Climbing Toronto Center
Thu 01:57:25 AM 43.1500 -79.8667 144° Southeast 100 115 1,900 700 Climbing Toronto Center
Thu 01:58:25 AM 43.1500 -79.8167 90° East 110 127 2,600 700 Climbing Toronto Center
Thu 01:59:25 AM 43.1333 -79.7667 115° Southeast 110 127 3,300 700 Climbing Toronto Center
Thu 02:00:25 AM 43.1500 -79.7500 36° Northeast 120 138 4,000 700 Climbing Toronto Center
Thu 02:01:00 AM 43.1495 -79.5079 95° East  Level FlightAware Approximate
Thu 02:01:25 AM 43.1667 -79.7000 65° Northeast 120 138 4,700  Level Toronto Center
Thu 02:02:25 AM 43.2000 -79.6500 48° Northeast 130 150 5,300 650 Climbing Toronto Center
Thu 02:03:25 AM 43.2167 -79.6333 36° Northeast 130 150 6,000 650 Climbing Toronto Center
Thu 02:04:25 AM 43.2500 -79.5833 48° Northeast 120 138 6,600 500 Climbing Toronto Center
Thu 02:05:25 AM 43.2667 -79.5667 36° Northeast 130 150 7,000 200 Climbing Toronto Center
Thu 02:06:25 AM 43.3000 -79.5167 47° Northeast 150 173 7,000  Level Toronto Center
Thu 02:07:25 AM 43.3167 -79.4667 65° Northeast 160 184 7,000  Level Toronto Center
Thu 02:08:25 AM 43.3500 -79.4333 36° Northeast 160 184 7,000  Level Toronto Center
Thu 02:09:25 AM 43.3667 -79.3500 75° East 160 184 7,000  Level Toronto Center
Thu 02:10:25 AM 43.4000 -79.3167 36° Northeast 160 184 7,000  Level Toronto Center
Thu 02:11:25 AM 43.4167 -79.2667 65° Northeast 170 196 7,000  Level Toronto Center
Thu 02:12:25 AM 43.4500 -79.2000 55° Northeast 160 184 7,000  Level Toronto Center
Thu 02:13:25 AM 43.4667 -79.1500 65° Northeast 160 184 7,000  Level Toronto Center
Thu 02:14:25 AM 43.5000 -79.1000 47° Northeast 160 184 7,000  Level Toronto Center
Thu 02:15:25 AM 43.5167 -79.0333 71° East 160 184 7,000  Level Toronto Center
Thu 02:16:25 AM 43.5500 -78.9833 47° Northeast 160 184 7,000  Level Toronto Center
Thu 02:17:25 AM 43.5667 -78.9500 55° Northeast 160 184 7,000  Level Toronto Center
Thu 02:18:25 AM 43.5833 -78.9000 65° Northeast 160 184 7,000  Level Toronto Center
Thu 02:19:25 AM 43.6167 -78.8333 55° Northeast 160 184 7,000  Level Toronto Center
Thu 02:20:25 AM 43.6333 -78.7833 65° Northeast 170 196 7,000  Level Toronto Center
Thu 02:21:25 AM 43.6667 -78.7333 47° Northeast 170 196 7,000  Level Toronto Center
Thu 02:22:25 AM 43.7000 -78.6667 55° Northeast 170 196 7,000  Level Toronto Center
Thu 02:23:25 AM 43.7167 -78.6167 65° Northeast 170 196 7,000  Level Toronto Center
Thu 02:24:25 AM 43.7500 -78.5667 47° Northeast 160 184 7,000  Level Toronto Center
Thu 02:25:25 AM 43.7667 -78.5000 71° East 160 184 7,000  Level Toronto Center
Thu 02:26:25 AM 43.7667 -78.4500 90° East 160 184 7,000  Level Toronto Center
Thu 02:27:25 AM 43.8000 -78.4167 36° Northeast 170 196 7,000  Level Toronto Center
Thu 02:28:25 AM 43.8167 -78.3667 65° Northeast 160 184 7,000  Level Toronto Center
Thu 02:29:25 AM 43.8500 -78.3000 55° Northeast 160 184 7,000  Level Toronto Center
Thu 02:30:25 AM 43.8667 -78.2500 65° Northeast 160 184 7,000  Level Toronto Center
Thu 02:31:25 AM 43.9000 -78.2000 47° Northeast 160 184 7,000  Level Toronto Center
Thu 02:32:25 AM 43.9167 -78.1500 65° Northeast 160 184 7,000  Level Toronto Center
Thu 02:33:25 AM 43.9500 -78.1000 47° Northeast 160 184 7,000  Level Toronto Center
Thu 02:34:25 AM 43.9667 -78.0333 71° East 160 184 7,000  Level Toronto Center
Thu 02:35:25 AM 44.0000 -77.9833 47° Northeast 160 184 7,000  Level Toronto Center
Thu 02:36:25 AM 44.0167 -77.9333 65° Northeast 160 184 7,000  Level Toronto Center
Thu 02:37:25 AM 44.0500 -77.9000 36° Northeast 160 184 7,000  Level Toronto Center
Thu 02:38:25 AM 44.0667 -77.8167 74° East 160 184 7,000  Level Toronto Center
Thu 02:39:25 AM 44.0833 -77.7833 55° Northeast 160 184 7,000  Level Toronto Center
Thu 02:40:25 AM 44.1167 -77.7333 47° Northeast 160 184 7,000  Level Toronto Center
Thu 02:41:25 AM 44.1333 -77.6833 65° Northeast 160 184 7,000  Level Toronto Center
Thu 02:42:25 AM 44.1667 -77.6333 47° Northeast 160 184 7,000  Level Toronto Center
Thu 02:44:33 AM 44.2167 -77.5333 55° Northeast 160 184 7,000  Level Montreal Center
Thu 02:45:20 AM 44.2333 -77.4667 71° East 160 184 7,000  Level Toronto Center
Thu 02:46:20 AM 44.2500 -77.4167 65° Northeast 160 184 7,000  Level Toronto Center
Thu 02:47:20 AM 44.2500 -77.3667 90° East 160 184 7,000  Level Toronto Center
Thu 02:48:20 AM 44.2833 -77.3000 55° Northeast 160 184 7,000  Level Toronto Center
Thu 02:49:20 AM 44.3000 -77.2500 65° Northeast 160 184 7,000  Level Toronto Center
Thu 02:50:20 AM 44.3333 -77.2000 47° Northeast 160 184 7,000  Level Toronto Center
Thu 02:51:20 AM 44.3500 -77.1667 55° Northeast 160 184 7,000  Level Toronto Center
Thu 02:52:20 AM 44.3833 -77.0833 61° Northeast 160 184 7,000  Level Toronto Center
Thu 02:53:20 AM 44.4167 -77.0333 47° Northeast 170 196 7,000  Level Toronto Center
Thu 02:54:20 AM 44.4333 -77.0000 55° Northeast 160 184 7,000  Level Toronto Center
Thu 02:55:20 AM 44.4667 -76.9500 47° Northeast 160 184 7,000  Level Toronto Center
Thu 02:56:20 AM 44.4833 -76.9000 65° Northeast 160 184 7,000  Level Toronto Center
Thu 02:57:20 AM 44.5167 -76.8333 55° Northeast 160 184 7,000  Level Toronto Center
Thu 02:58:20 AM 44.5333 -76.7833 65° Northeast 160 184 7,000  Level Toronto Center
Thu 02:59:20 AM 44.5500 -76.7333 65° Northeast 160 184 7,000  Level Toronto Center
Thu 03:00:20 AM 44.5833 -76.6833 47° Northeast 160 184 7,000  Level Toronto Center
Thu 03:01:20 AM 44.5833 -76.6167 90° East 160 184 7,000  Level Toronto Center
Thu 03:02:20 AM 44.6167 -76.5667 47° Northeast 160 184 7,000  Level Toronto Center
Thu 03:03:20 AM 44.6333 -76.5167 65° Northeast 160 184 7,000  Level Toronto Center
Thu 03:04:20 AM 44.6667 -76.4667 47° Northeast 160 184 7,000  Level Toronto Center
Thu 03:05:20 AM 44.6833 -76.4000 71° East 160 184 7,000  Level Toronto Center
Thu 03:06:20 AM 44.7167 -76.3500 47° Northeast 160 184 7,000  Level Toronto Center
Thu 03:07:20 AM 44.7333 -76.3000 65° Northeast 160 184 7,000  Level Toronto Center
Thu 03:08:20 AM 44.7667 -76.2500 47° Northeast 160 184 7,000  Level Toronto Center
Thu 03:09:20 AM 44.7833 -76.1833 71° East 160 184 7,000  Level Toronto Center
Thu 03:10:20 AM 44.8167 -76.1333 47° Northeast 160 184 7,000  Level Toronto Center
Thu 03:11:20 AM 44.8333 -76.0833 65° Northeast 160 184 7,000  Level Toronto Center
Thu 03:12:20 AM 44.8500 -76.0333 65° Northeast 160 184 7,000  Level Toronto Center
Thu 03:13:20 AM 44.8667 -75.9667 71° East 160 184 7,000  Level Toronto Center
Thu 03:14:20 AM 44.8833 -75.9167 65° Northeast 160 184 7,000  Level Toronto Center
Thu 03:15:20 AM 44.9167 -75.8667 47° Northeast 160 184 7,000  Level Toronto Center
Thu 03:16:20 AM 44.9333 -75.8167 65° Northeast 160 184 7,000  Level Toronto Center
Thu 03:17:20 AM 44.9667 -75.7667 47° Northeast 160 184 7,000  Level Toronto Center
Thu 03:18:20 AM 44.9833 -75.7000 71° East 160 184 7,000  Level Toronto Center
Thu 03:19:20 AM 45.0167 -75.6500 47° Northeast 160 184 7,000  Level Toronto Center
Thu 03:20:20 AM 45.0333 -75.6000 65° Northeast 160 184 7,000  Level Toronto Center
Thu 03:21:20 AM 45.0333 -75.5500 90° East 160 184 7,000  Level Toronto Center
Thu 03:22:20 AM 45.0667 -75.4833 55° Northeast 160 184 7,000  Level Toronto Center
Thu 03:23:20 AM 45.1000 -75.4333 47° Northeast 160 184 7,000  Level Toronto Center
Thu 03:24:20 AM 45.1167 -75.3833 65° Northeast 160 184 7,000  Level Toronto Center
Thu 03:25:20 AM 45.1333 -75.3333 65° Northeast 160 184 7,000  Level Toronto Center
Thu 03:26:20 AM 45.1667 -75.2500 60° Northeast 160 184 7,000  Level Toronto Center
Thu 03:27:20 AM 45.1833 -75.2000 65° Northeast 160 184 7,000  Level Toronto Center
Thu 03:28:20 AM 45.2167 -75.1500 47° Northeast 170 196 7,000  Level Toronto Center
Thu 03:29:20 AM 45.2167 -75.0833 90° East 170 196 7,000  Level Toronto Center
Thu 03:30:20 AM 45.2500 -75.0333 47° Northeast 170 196 7,000  Level Toronto Center
Thu 03:31:20 AM 45.2667 -74.9833 65° Northeast 170 196 7,000  Level Toronto Center
Thu 03:32:20 AM 45.3000 -74.9167 55° Northeast 170 196 7,000  Level Toronto Center
Thu 03:33:20 AM 45.3167 -74.8667 65° Northeast 170 196 7,000  Level Toronto Center
Thu 03:34:20 AM 45.3500 -74.8167 47° Northeast 170 196 7,000 -50 Level Toronto Center
Thu 03:35:20 AM 45.3833 -74.7333 60° Northeast 170 196 6,900 -250 Descending Toronto Center
Thu 03:36:20 AM 45.3833 -74.7000 90° East 180 207 6,500 -450 Descending Toronto Center
Thu 03:37:20 AM 45.4167 -74.6167 60° Northeast 190 219 6,000 -451 Descending Toronto Center
Thu 03:38:33 AM 45.4500 -74.5667 46° Northeast 190 219 5,500 -496 Descending Montreal Center
Thu 03:39:33 AM 45.4833 -74.5167 46° Northeast 190 219 4,900 -550 Descending Montreal Center
Thu 03:40:33 AM 45.5000 -74.4333 74° East 190 219 4,400 -550 Descending Montreal Center
Thu 03:41:33 AM 45.5333 -74.3667 54° Northeast 190 219 3,800 -550 Descending Montreal Center
Thu 03:42:33 AM 45.5667 -74.3167 46° Northeast 190 219 3,300 -500 Descending Montreal Center
Thu 03:43:33 AM 45.5833 -74.2500 70° East 180 207 2,800 -500 Descending Montreal Center
Thu 03:44:33 AM 45.6167 -74.2000 46° Northeast 180 207 2,300 -450 Descending Montreal Center
Thu 03:45:33 AM 45.6333 -74.1167 74° East 180 207 1,900 -500 Descending Montreal Center
Thu 03:46:33 AM 45.6500 -74.0500 70° East 180 207 1,300 -750 Descending Montreal Center
Thu 03:47:33 AM 45.6500 -74.0000 90° East 110 127 400 -900 Descending Montreal Center

Login

Don't have an account? Register now (free) for customized features, flight alerts, and more!